ADDS METAR Data INFO
IDs: Format: Raw Decoded Include TAF

Data at: 0920 UTC 13 Dec 2017

PAHL 130856Z AUTO 07013KT 10SM OVC065 00/M04 A2971 RMK AO2 SLP072 T00001039 400111022 51010 FZRANO
PAHL 130756Z AUTO 08011G16KT 10SM BKN055 OVC120 00/M03 A2971 RMK AO2 SLP071 T00001033 FZRANO
PAHL 130656Z AUTO 08012KT 10SM CLR M01/M03 A2969 RMK AO2 SLP064 T10061033 FZRANO
PAHL 130556Z AUTO 07011KT 10SM CLR M01/M03 A2968 RMK AO2 SLP061 T10061033 10006 21011 53007 FZRANO
PAHL 130456Z AUTO 08011KT 10SM CLR M01/M03 A2967 RMK AO2 SLP058 T10111033 FZRANO
PAHL 130356Z AUTO 08008KT 10SM FEW100 M01/M03 A2967 RMK AO2 SLP057 T10111033 FZRANO
PAHL 130256Z AUTO 08009KT 10SM CLR M01/M03 A2966 RMK AO2 SLP054 T10061028 53006 FZRANO
PAHL 130156Z AUTO 07009KT 10SM CLR M01/M02 A2965 RMK AO2 SLP051 T10061022 FZRANO
PAHL 130056Z AUTO 07008KT 10SM SCT120 00/M02 A2964 RMK AO2 SLP048 T00001022 FZRANO
PAHL 122356Z AUTO 07008KT 10SM CLR 01/M02 A2964 RMK AO2 SLP048 T00061017 10011 20000 53002 FZRANO
PAHL 122256Z AUTO 07008KT 10SM CLR 01/M01 A2964 RMK AO2 SLP048 T00061011 FZRANO
PAHL 122156Z AUTO 06010KT 10SM BKN110 01/M01 A2964 RMK AO2 SLP045 T00061011 FZRANO
PAHL 122056Z AUTO 06009KT 10SM OVC100 01/M01 A2964 RMK AO2 SLP047 T00111011 53004 FZRANO
PAHL 121956Z AUTO 07010KT 10SM OVC085 01/M01 A2963 RMK AO2 SLP042 T00111006 FZRANO
PAHL 121856Z AUTO 05007KT 10SM OVC080 00/M01 A2963 RMK AO2 SLP043 T00001011 FZRANO
PAHL 121756Z AUTO 07005KT 10SM OVC070 00/M01 A2963 RMK AO2 SLP043 60000 T00001011 10006 21022 53002 FZRANO
PAHL 121656Z AUTO 06006KT 10SM BKN065 OVC090 01/M01 A2963 RMK AO2 SLP042 T00061011 FZRANO
PAHL 121556Z AUTO 08004KT 10SM OVC060 01/M01 A2961 RMK AO2 RAB20E39 SLP038 P0000 T00061011 FZRANO
PAHL 121456Z AUTO 09007KT 10SM SCT040 BKN050 OVC060 01/M02 A2962 RMK AO2 UPB37E44RAB44E47 SLP040 P0000 60000 T00061017 51005 FZRANO
PAHL 121356Z AUTO 10006KT 10SM OVC090 M01/M02 A2962 RMK AO2 SLP039 T10061017 FZRANO
PAHL 121256Z AUTO 11004KT 10SM FEW055 OVC095 M01/M02 A2961 RMK AO2 SNB00E20 SLP038 P0000 T10111017 FZRANO
PAHL 121156Z AUTO 15004KT 10SM SCT049 SCT080 SCT090 M02/M03 A2961 RMK AO2 SLP036 70003 T10221033 10006 21022 51015 FZRANO
PAHL 121056Z AUTO 12005KT 10SM FEW036 OVC080 M02/M03 A2959 RMK AO2 SLP032 T10221028 FZRANO
PAHL 120956Z AUTO 13004KT 10SM BKN038 M01/M02 A2958 RMK AO2 SLP027 T10111022 FZRANO
PAHL 120856Z AUTO 13005KT 10SM CLR M01/M01 A2956 RMK AO2 SLP020 T10061011 400061033 51019 FZRANO
PAHL 120812Z AUTO 10003KT 10SM SCT028 SCT070 BKN100 00/M01 A2955 RMK AO2 FZRANO
PAHL 120804Z AUTO 10005KT 10SM BKN028 BKN048 OVC100 01/M01 A2956 RMK AO2 FZRANO
PAHL 120756Z AUTO 11004KT 10SM SCT028 BKN048 OVC100 01/M01 A2955 RMK AO2 SLP017 T00061006 FZRANO
PAHL 120656Z AUTO 13004KT 10SM BKN037 BKN055 OVC085 01/M01 A2952 RMK AO2 SLP008 T00061006 FZRANO
PAHL 120641Z AUTO 15003KT 10SM SCT025 OVC035 01/M01 A2952 RMK AO2 FZRANO
PAHL 120611Z AUTO 15005KT 10SM BKN027 OVC039 01/M01 A2951 RMK AO2 FZRANO
PAHL 120556Z AUTO 16006KT 10SM FEW027 BKN039 01/M01 A2950 RMK AO2 SLP000 P0001 60003 T00061011 10006 21022 53030 FZRANO
PAHL 120456Z AUTO 12005KT 10SM BKN035 M01/M02 A2946 RMK AO2 SNE18 SLP987 P0001 T10111017 FZRANO
PAHL 120437Z AUTO 10003KT 10SM FEW006 SCT018 OVC035 M01/M02 A2945 RMK AO2 SNE18 P0000 FZRANO
PAHL 120428Z AUTO 10004KT 10SM FEW006 BKN018 OVC035 M01/M02 A2945 RMK AO2 SNE18 P0000 FZRANO
PAHL 120421Z AUTO 10003KT 9SM SCT006 BKN012 OVC018 M01/M02 A2945 RMK AO2 SNE18 P0000 FZRANO
PAHL 120405Z AUTO 10004KT 8SM -SN FEW004 SCT008 OVC015 M01/M02 A2944 RMK AO2 P0000 FZRANO
PAHL 120356Z AUTO 11004KT 5SM -SN BR BKN006 OVC016 M01/M02 A2944 RMK AO2 CIG 004V009 SLP978 P0000 T10111017 FZRANO
PAHL 120352Z AUTO 11004KT 3SM -SN BR BKN006 OVC016 M01/M02 A2943 RMK AO2 CIG 004V008 P0000 FZRANO
PAHL 120324Z AUTO 09004KT 2SM -SN BR FEW006 OVC018 M02/M02 A2942 RMK AO2 P0000 FZRANO
PAHL 120316Z AUTO 10004KT 1 3/4SM -SN BR FEW006 OVC018 M02/M02 A2942 RMK AO2 P0000 FZRANO
PAHL 120256Z AUTO 10005KT 1 3/4SM -SN BR OVC023 M02/M03 A2941 RMK AO2 SLP971 P0001 60001 T10171028 51020 FZRANO
PAHL 120246Z AUTO 09004KT 1 3/4SM -SN BR FEW012 OVC025 M02/M03 A2941 RMK AO2 P0001 FZRANO
PAHL 120228Z AUTO 08004KT 2SM -SN BR SCT016 OVC021 M02/M03 A2940 RMK AO2 P0000 FZRANO
PAHL 120218Z AUTO 09004KT 3SM -SN BR FEW010 BKN016 OVC023 M02/M03 A2939 RMK AO2 P0000 FZRANO
PAHL 120156Z AUTO 10004KT 2 1/2SM -SN BR BKN018 OVC025 M02/M03 A2939 RMK AO2 SLP962 P0000 T10221033 FZRANO
PAHL 120154Z AUTO 10004KT 2SM -SN BR SCT016 OVC025 M02/M03 A2939 RMK AO2 P0000 FZRANO
PAHL 120131Z AUTO 10004KT 4SM -SN BR FEW018 OVC029 M02/M04 A2938 RMK AO2 P0000 FZRANO
PAHL 120115Z AUTO 12004KT 2 1/2SM -SN BR BKN029 OVC038 M02/M04 A2937 RMK AO2 VIS 2V4 P0000 FZRANO
PAHL 120056Z AUTO 10006KT 6SM -SN BR BKN036 OVC080 M02/M04 A2935 RMK AO2 SNB47 SLP951 P0000 T10221039 FZRANO
PAHL 112356Z AUTO 09007KT 10SM OVC075 M02/M04 A2932 RMK AO2 SLP940 T10221039 11017 21033 53028 FZRANO
PAHL 112256Z AUTO 08007KT 10SM SCT080 BKN100 BKN120 M02/M04 A2929 RMK AO2 SLP929 T10221039 FZRANO
PAHL 112156Z AUTO 06008KT 10SM OVC070 M02/M03 A2926 RMK AO2 SLP919 T10221033 FZRANO